createdAt,value
2018-05-03T18:26:42.014Z,9.77
2018-05-03T18:29:22.233Z,8.50
2018-05-03T18:32:02.779Z,10.70
2018-05-03T18:34:43.213Z,9.87
2018-05-03T18:37:24.797Z,8.47
2018-05-03T18:40:05.262Z,5.07
2018-05-03T18:42:45.588Z,6.90
2018-05-03T18:45:27.154Z,5.83
2018-05-03T18:48:07.705Z,7.10
2018-05-03T18:50:48.783Z,9.13
2018-05-03T18:53:29.968Z,11.37
2018-05-03T18:56:10.437Z,4.10
2018-05-03T18:58:50.753Z,4.73
2018-05-03T19:01:31.046Z,5.77
2018-05-03T19:04:11.370Z,14.13
2018-05-03T19:06:51.689Z,9.50
2018-05-03T19:09:32.976Z,7.07
2018-05-03T19:12:14.025Z,6.17
2018-05-03T19:14:55.125Z,8.37
2018-05-03T19:17:36.172Z,6.80
2018-05-03T19:20:16.435Z,11.07
2018-05-03T19:22:57.725Z,8.70
2018-05-03T19:25:41.037Z,12.40
2018-05-03T19:28:21.575Z,10.30
2018-05-03T19:31:02.389Z,9.37
2018-05-03T19:33:43.595Z,15.03
2018-05-03T19:36:30.458Z,11.63
2018-05-03T19:39:10.909Z,12.50
2018-05-03T19:41:52.148Z,10.70
2018-05-03T19:44:33.938Z,11.47
2018-05-03T19:47:14.445Z,9.40
2018-05-03T19:49:56.705Z,9.30
2018-05-03T19:52:47.336Z,12.40
2018-05-03T19:55:30.425Z,11.93
2018-05-03T19:58:10.905Z,12.53
2018-05-03T20:00:51.377Z,12.83
2018-05-03T20:03:31.752Z,11.17
2018-05-03T20:06:12.894Z,12.83
2018-05-03T20:08:54.113Z,12.73
2018-05-03T20:11:35.465Z,12.77
2018-05-03T20:14:16.469Z,10.33
2018-05-03T20:16:58.122Z,14.10
2018-05-03T20:19:40.309Z,11.03
2018-05-03T20:22:20.983Z,14.73
2018-05-03T20:25:02.180Z,14.90
2018-05-03T20:27:43.432Z,15.77
2018-05-03T20:30:27.056Z,13.13
2018-05-03T20:33:08.345Z,15.63
2018-05-03T20:35:48.684Z,16.37
2018-05-03T20:38:29.054Z,14.17
2018-05-03T20:41:10.190Z,17.37
2018-05-03T20:43:50.521Z,15.43
2018-05-03T20:46:31.129Z,13.27
2018-05-03T20:49:11.568Z,10.57
2018-05-03T20:51:51.941Z,17.00
2018-05-03T20:54:33.779Z,12.60
2018-05-03T20:57:14.233Z,11.97
2018-05-03T20:59:56.293Z,10.83
2018-05-03T21:02:36.950Z,14.50
2018-05-03T21:05:17.302Z,14.63
2018-05-03T21:07:57.705Z,18.07
2018-05-03T21:10:38.157Z,15.90
2018-05-03T21:13:20.018Z,18.10
2018-05-03T21:16:00.307Z,15.90
2018-05-03T21:18:40.662Z,16.10
2018-05-03T21:21:21.748Z,16.13
2018-05-03T21:24:02.745Z,18.00
2018-05-03T21:26:43.686Z,16.77
2018-05-03T21:29:24.806Z,12.97
2018-05-03T21:32:05.228Z,12.03
2018-05-03T21:34:45.579Z,13.13
2018-05-03T21:37:43.116Z,14.37
2018-05-03T21:40:27.994Z,13.30
2018-05-03T21:43:09.148Z,11.00
2018-05-03T21:45:49.626Z,12.80
2018-05-03T21:48:29.919Z,13.80
2018-05-03T21:51:10.270Z,13.80
2018-05-03T21:53:52.229Z,13.53
2018-05-03T21:56:33.816Z,18.43
2018-05-03T21:59:14.166Z,11.33
2018-05-03T22:01:55.885Z,12.70
2018-05-03T22:04:36.201Z,14.00
2018-05-03T22:07:16.561Z,12.50
2018-05-03T22:09:57.034Z,12.40
2018-05-03T22:12:37.752Z,11.93
2018-05-03T22:15:18.307Z,12.83
2018-05-03T22:17:58.692Z,13.83
2018-05-03T22:20:39.001Z,13.03
2018-05-03T22:23:19.437Z,14.53
2018-05-03T22:26:09.535Z,17.13
2018-05-03T22:28:50.021Z,14.20
2018-05-03T22:31:30.489Z,16.47
2018-05-03T22:34:11.169Z,15.27
2018-05-03T22:36:51.518Z,13.37
2018-05-03T22:39:31.855Z,10.07
2018-05-03T22:42:12.133Z,10.83
2018-05-03T22:44:52.463Z,15.73
2018-05-03T22:47:33.480Z,15.03
2018-05-03T22:50:13.833Z,15.63
2018-05-03T22:52:54.747Z,17.07
2018-05-03T22:55:35.068Z,19.10
2018-05-03T22:58:15.451Z,16.07
2018-05-03T23:00:56.619Z,15.80
2018-05-03T23:03:37.043Z,15.57
2018-05-03T23:06:17.492Z,14.90
2018-05-03T23:08:58.001Z,17.33
2018-05-03T23:11:38.441Z,16.60
2018-05-03T23:14:19.520Z,16.13
2018-05-03T23:16:59.957Z,14.67
2018-05-03T23:19:41.158Z,16.87
2018-05-03T23:22:21.340Z,14.97
2018-05-03T23:25:02.292Z,23.53
2018-05-03T23:27:42.730Z,24.70
2018-05-03T23:30:22.944Z,13.40
2018-05-03T23:33:03.594Z,14.20
2018-05-03T23:35:44.649Z,11.83
2018-05-03T23:38:25.785Z,12.27
2018-05-03T23:41:06.113Z,13.40
2018-05-03T23:43:46.596Z,14.03
2018-05-03T23:46:27.472Z,11.00
2018-05-03T23:49:07.924Z,12.23
2018-05-03T23:51:48.233Z,12.77
2018-05-03T23:54:29.049Z,13.10
2018-05-03T23:57:09.377Z,9.93
2018-05-03T23:59:49.673Z,11.93
